Time;durP1;ratioP1;P1;durP2;ratioP2;P2;SDS_P1;SDS_P2;PMS_P1;PMS_P2;Temp;Humidity;BMP_temperature;BMP_pressure;BME280_temperature;BME280_humidity;BME280_pressure;Samples;Min_cycle;Max_cycle;Signal;HPM_P1;HPM_P2
2021/08/20 00:00:06;;;;;;;6.50;4.18;;;;;;;14.88;72.97;93170.63;5110235;28;20043;-79
2021/08/20 00:02:33;;;;;;;11.75;4.57;;;;;;;14.82;72.92;93156.84;5109955;28;20044;-79
2021/08/20 00:05:00;;;;;;;10.93;5.13;;;;;;;14.85;73.69;93168.50;5110002;28;20058;-79
2021/08/20 00:07:27;;;;;;;10.38;5.78;;;;;;;14.79;73.78;93161.72;5109882;28;20046;-79
2021/08/20 00:09:57;;;;;;;12.43;5.80;;;;;;;14.88;73.27;93170.63;5110413;28;20058;-79
2021/08/20 00:12:24;;;;;;;11.27;5.35;;;;;;;14.85;73.49;93171.09;5109616;28;20055;-78
2021/08/20 00:14:51;;;;;;;12.43;6.10;;;;;;;14.85;73.80;93176.28;5109675;28;20047;-79
2021/08/20 00:17:18;;;;;;;13.55;5.68;;;;;;;14.92;73.95;93179.50;5109347;28;20055;-79
2021/08/20 00:19:44;;;;;;;9.82;5.45;;;;;;;15.00;73.56;93180.09;5109823;28;20043;-78
2021/08/20 00:22:11;;;;;;;11.05;5.95;;;;;;;14.89;73.88;93176.56;5109793;28;21124;-78
2021/08/20 00:24:38;;;;;;;9.68;6.30;;;;;;;14.96;73.43;93180.56;5109750;28;20047;-79
2021/08/20 00:27:07;;;;;;;15.02;6.55;;;;;;;14.88;73.77;93170.63;5109587;28;20515;-78
2021/08/20 00:29:33;;;;;;;13.40;5.85;;;;;;;14.92;73.26;93171.75;5109511;28;20048;-78
2021/08/20 00:32:00;;;;;;;16.02;5.93;;;;;;;14.92;73.50;93178.72;5109330;28;20055;-79
2021/08/20 00:34:27;;;;;;;10.32;5.68;;;;;;;14.89;73.08;93176.56;5109505;28;20051;-79
2021/08/20 00:36:54;;;;;;;11.10;5.75;;;;;;;14.66;73.02;93152.44;5109739;28;20047;-79
2021/08/20 00:39:21;;;;;;;12.43;6.30;;;;;;;14.86;73.25;93184.81;5109725;28;20051;-79
2021/08/20 00:41:48;;;;;;;10.18;6.43;;;;;;;14.83;72.96;93176.50;5109737;28;20044;-79
2021/08/20 00:44:19;;;;;;;12.20;5.72;;;;;;;14.78;72.87;93184.22;5109420;28;20394;-79
2021/08/20 00:46:46;;;;;;;11.13;6.07;;;;;;;14.75;72.78;93182.09;5109616;28;20044;-79
2021/08/20 00:49:13;;;;;;;10.35;5.63;;;;;;;14.70;73.02;93171.63;5109668;28;20039;-79
2021/08/20 00:51:40;;;;;;;7.90;4.97;;;;;;;14.72;73.54;93181.75;5109292;28;20059;-79
2021/08/20 00:54:10;;;;;;;9.40;5.10;;;;;;;14.74;73.41;93177.91;5109250;28;20088;-79
2021/08/20 00:56:37;;;;;;;10.18;4.93;;;;;;;14.63;73.51;93166.63;5109120;28;20051;-79
2021/08/20 00:59:04;;;;;;;9.48;5.25;;;;;;;14.68;72.89;93171.88;5109336;28;20047;-79
2021/08/20 01:01:33;;;;;;;9.02;4.78;;;;;;;14.82;72.81;93187.88;5109346;28;20537;-79
2021/08/20 01:04:00;;;;;;;8.68;4.85;;;;;;;14.66;72.61;93170.53;5109182;28;20050;-79
2021/08/20 01:06:28;;;;;;;11.00;5.50;;;;;;;14.65;73.38;93185.28;5109243;28;20623;-79
2021/08/20 01:08:56;;;;;;;9.23;5.20;;;;;;;14.62;73.56;93198.66;5109667;28;20630;-79
2021/08/20 01:11:25;;;;;;;10.43;6.25;;;;;;;14.56;73.40;93190.06;5111972;28;20044;-79
2021/08/20 01:13:52;;;;;;;11.73;5.70;;;;;;;14.56;73.36;93189.25;5113077;28;20051;-79
2021/08/20 01:16:19;;;;;;;10.57;6.07;;;;;;;14.37;74.08;93193.88;5113373;28;20050;-79
2021/08/20 01:18:48;;;;;;;11.35;5.47;;;;;;;14.22;74.69;93187.44;5113400;28;20056;-79
2021/08/20 01:21:17;;;;;;;10.35;5.53;;;;;;;14.01;75.00;93157.88;5113294;28;20050;-79
2021/08/20 01:23:45;;;;;;;10.25;5.75;;;;;;;14.20;75.05;93192.03;5113593;28;20047;-79
2021/08/20 01:26:14;;;;;;;9.93;5.70;;;;;;;14.10;75.06;93166.81;5113215;28;20411;-79
2021/08/20 01:28:41;;;;;;;10.00;5.18;;;;;;;14.01;75.15;93171.59;5112970;28;20043;-79
2021/08/20 01:31:10;;;;;;;10.95;4.85;;;;;;;13.95;75.88;93166.56;5113104;28;20389;-79
2021/08/20 01:33:37;;;;;;;14.85;5.45;;;;;;;14.02;76.31;93186.06;5112262;28;20059;-79
2021/08/20 01:36:05;;;;;;;11.15;5.40;;;;;;;13.90;75.84;93164.66;5113107;28;20051;-79
2021/08/20 01:38:34;;;;;;;12.43;5.40;;;;;;;14.00;76.65;93179.56;5112593;28;20058;-79
2021/08/20 01:41:00;;;;;;;11.25;4.70;;;;;;;14.08;75.86;93179.19;5113031;28;20098;-79
2021/08/20 01:43:29;;;;;;;9.32;4.85;;;;;;;13.97;76.76;93180.00;5112908;28;20039;-79
2021/08/20 01:45:55;;;;;;;11.13;4.35;;;;;;;13.94;77.20;93180.47;5112807;28;20490;-79
2021/08/20 01:48:22;;;;;;;12.00;5.03;;;;;;;13.96;77.19;93173.28;5112758;28;20059;-79
2021/08/20 01:50:49;;;;;;;9.55;4.50;;;;;;;13.93;77.31;93186.66;5112812;28;20048;-80
2021/08/20 01:53:16;;;;;;;8.13;4.65;;;;;;;13.84;77.58;93179.28;5112296;28;20055;-79
2021/08/20 01:55:45;;;;;;;8.65;5.18;;;;;;;13.82;77.83;93176.16;5112610;27;20052;-79
2021/08/20 01:58:12;;;;;;;13.27;5.30;;;;;;;13.82;78.03;93183.09;5112531;28;20078;-79
2021/08/20 02:00:41;;;;;;;8.40;5.13;;;;;;;13.89;78.30;93184.53;5111708;28;20043;-79
2021/08/20 02:03:08;;;;;;;10.23;4.72;;;;;;;13.98;77.61;93179.00;5111178;28;20048;-79
2021/08/20 02:05:35;;;;;;;9.25;5.40;;;;;;;14.01;77.31;93184.50;5112524;28;20066;-79
2021/08/20 02:08:02;;;;;;;8.95;5.65;;;;;;;14.03;77.21;93179.88;5111683;28;20541;-79
2021/08/20 02:10:29;;;;;;;8.00;5.57;;;;;;;14.01;77.10;93187.06;5111984;28;20492;-79
2021/08/20 02:12:56;;;;;;;12.45;5.47;;;;;;;14.03;77.21;93189.44;5112413;28;20108;-78
2021/08/20 02:15:23;;;;;;;14.32;5.00;;;;;;;14.05;76.98;93181.44;5112395;28;20047;-79
2021/08/20 02:17:51;;;;;;;10.82;5.32;;;;;;;13.99;77.72;93183.94;5112153;28;20070;-78
2021/08/20 02:20:18;;;;;;;11.38;5.72;;;;;;;13.85;78.43;93174.91;5111766;28;20488;-78
2021/08/20 02:22:44;;;;;;;11.27;5.47;;;;;;;13.84;78.08;93176.69;5111789;28;20111;-77
2021/08/20 02:25:11;;;;;;;9.70;5.07;;;;;;;13.96;78.14;93188.78;5111766;28;20522;-77
2021/08/20 02:27:38;;;;;;;13.30;5.60;;;;;;;14.02;77.57;93180.91;5112088;28;20059;-76
2021/08/20 02:30:06;;;;;;;12.43;5.15;;;;;;;14.07;77.17;93184.59;5111841;28;20051;-79
2021/08/20 02:32:33;;;;;;;8.65;4.68;;;;;;;14.01;77.24;93179.34;5103053;27;20054;-79
2021/08/20 02:35:01;;;;;;;12.38;6.20;;;;;;;13.93;77.92;93182.28;5099394;28;20051;-80
2021/08/20 02:37:28;;;;;;;14.48;6.30;;;;;;;13.85;77.61;93174.91;5091309;28;20052;-80
2021/08/20 02:39:55;;;;;;;11.73;5.47;;;;;;;13.93;77.48;93179.69;5091114;28;20040;-80
2021/08/20 02:42:22;;;;;;;14.73;6.15;;;;;;;13.93;77.68;93178.91;5091392;28;20052;-81
2021/08/20 02:44:49;;;;;;;9.90;5.03;;;;;;;13.79;78.00;93174.00;5091034;28;20052;-82
2021/08/20 02:47:16;;;;;;;9.30;5.78;;;;;;;13.81;77.87;93184.91;5091211;28;20059;-82
2021/08/20 02:49:42;;;;;;;12.05;5.20;;;;;;;13.78;78.62;93187.19;5091051;28;20048;-79
2021/08/20 02:52:10;;;;;;;9.02;5.85;;;;;;;13.60;79.28;93189.69;5090839;28;20173;-78
2021/08/20 02:54:37;;;;;;;10.02;5.57;;;;;;;13.52;79.65;93194.41;5090870;28;20101;-77
2021/08/20 02:57:05;;;;;;;9.52;6.05;;;;;;;13.51;79.90;93190.28;5091406;28;20059;-77
2021/08/20 02:59:32;;;;;;;11.32;4.95;;;;;;;13.55;79.88;93192.16;5090766;28;20424;-77
2021/08/20 03:01:59;;;;;;;9.35;5.32;;;;;;;13.47;79.78;93187.38;5090793;28;20142;-76
2021/08/20 03:04:26;;;;;;;10.88;5.28;;;;;;;13.47;80.58;93200.28;5090829;28;20048;-77
2021/08/20 03:06:54;;;;;;;12.93;4.80;;;;;;;13.41;81.11;93201.13;5090645;28;20493;-77
2021/08/20 03:09:22;;;;;;;9.38;5.25;;;;;;;13.28;81.00;93179.72;5090675;28;20507;-77
2021/08/20 03:11:49;;;;;;;11.35;5.05;;;;;;;13.45;80.50;93191.91;5090536;28;20051;-77
2021/08/20 03:14:17;;;;;;;8.63;5.35;;;;;;;13.44;80.99;93198.91;5090232;28;20542;-77
2021/08/20 03:16:44;;;;;;;10.02;5.00;;;;;;;13.43;81.23;93186.22;5090696;28;20074;-77
2021/08/20 03:19:11;;;;;;;10.23;5.43;;;;;;;13.36;81.23;93179.38;5090382;28;20040;-78
2021/08/20 03:21:38;;;;;;;9.45;5.40;;;;;;;13.45;81.06;93186.75;5090216;28;20492;-77
2021/08/20 03:24:05;;;;;;;8.30;5.30;;;;;;;13.41;80.84;93178.69;5090246;28;20051;-76
2021/08/20 03:26:33;;;;;;;9.55;5.38;;;;;;;13.50;80.22;93181.72;5090119;28;20055;-77
2021/08/20 03:29:00;;;;;;;12.52;5.03;;;;;;;13.47;80.41;93193.28;5078410;28;20045;-76
2021/08/20 03:31:27;;;;;;;9.30;5.35;;;;;;;13.36;81.50;93192.28;5110474;28;20051;-76
2021/08/20 03:33:55;;;;;;;17.23;5.57;;;;;;;13.38;81.36;93202.34;5110022;28;20051;-78
2021/08/20 03:36:22;;;;;;;20.48;6.43;;;;;;;13.38;80.82;93201.59;5110691;28;20100;-77
2021/08/20 03:38:50;;;;;;;16.55;5.50;;;;;;;13.41;80.75;93207.06;5110607;28;20131;-78
2021/08/20 03:41:17;;;;;;;17.20;5.50;;;;;;;13.25;80.85;93187.94;5110494;28;20130;-76
2021/08/20 03:43:45;;;;;;;15.38;5.60;;;;;;;13.26;81.53;93202.38;5107573;28;20438;-77
2021/08/20 03:46:12;;;;;;;23.55;5.90;;;;;;;13.25;81.56;93213.72;5108345;28;20138;-77
2021/08/20 03:48:39;;;;;;;14.55;5.90;;;;;;;13.19;81.86;93215.41;5109096;28;20489;-77
2021/08/20 03:51:06;;;;;;;14.63;7.10;;;;;;;13.15;82.31;93216.09;5109893;28;20532;-77
2021/08/20 03:53:33;;;;;;;13.38;6.10;;;;;;;13.11;82.29;93226.06;5110014;28;20050;-77
2021/08/20 03:55:59;;;;;;;11.88;5.93;;;;;;;13.05;83.24;93230.31;5110039;28;20047;-78
2021/08/20 03:58:26;;;;;;;13.40;6.13;;;;;;;13.04;83.39;93222.78;5110128;28;20047;-78
2021/08/20 04:00:55;;;;;;;11.10;5.78;;;;;;;12.99;83.11;93217.53;5109849;28;20137;-78
2021/08/20 04:03:23;;;;;;;14.30;6.40;;;;;;;13.08;83.29;93226.50;5109847;28;20522;-78
2021/08/20 04:05:50;;;;;;;22.27;7.32;;;;;;;13.09;83.38;93230.66;5110014;28;20043;-77
2021/08/20 04:08:18;;;;;;;20.15;7.18;;;;;;;13.24;82.84;93235.34;5109585;28;20043;-77
2021/08/20 04:10:46;;;;;;;13.40;7.10;;;;;;;13.27;82.78;93226.38;5109931;28;20104;-77
2021/08/20 04:13:13;;;;;;;23.02;6.78;;;;;;;13.39;82.20;93228.97;5109805;28;20047;-77
2021/08/20 04:15:41;;;;;;;13.80;5.95;;;;;;;13.36;82.45;93235.34;5109468;28;20040;-77
2021/08/20 04:18:09;;;;;;;14.88;6.78;;;;;;;13.16;84.65;93233.13;5109914;28;20044;-77
2021/08/20 04:20:37;;;;;;;11.18;6.43;;;;;;;13.21;83.57;93230.66;5109696;28;20052;-77
2021/08/20 04:23:05;;;;;;;13.43;5.93;;;;;;;13.38;83.19;93235.13;5109540;28;20048;-77
2021/08/20 04:25:33;;;;;;;12.02;6.28;;;;;;;13.45;82.92;93222.88;5109543;28;20048;-77
2021/08/20 04:28:00;;;;;;;11.90;5.60;;;;;;;13.62;82.64;93233.34;5109354;28;20134;-78
2021/08/20 04:30:29;;;;;;;14.15;6.07;;;;;;;13.75;81.99;93233.06;5109542;28;20047;-78
2021/08/20 04:32:57;;;;;;;11.82;5.28;;;;;;;13.82;81.60;93240.69;5109690;28;20154;-78
2021/08/20 04:35:26;;;;;;;11.02;6.55;;;;;;;13.95;80.85;93241.44;5109390;28;20097;-79
2021/08/20 04:37:52;;;;;;;17.08;7.20;;;;;;;14.05;81.22;93251.97;5109389;28;20056;-80
2021/08/20 04:40:20;;;;;;;15.23;6.82;;;;;;;14.01;80.61;93237.94;5109225;28;20051;-80
2021/08/20 04:42:47;;;;;;;13.20;6.47;;;;;;;14.12;79.61;93244.84;5109750;28;20058;-80
2021/08/20 04:45:15;;;;;;;12.10;6.60;;;;;;;14.28;79.86;93258.06;5111886;28;20044;-79
2021/08/20 04:47:43;;;;;;;17.25;6.45;;;;;;;14.26;79.65;93260.88;5113830;27;20070;-79
2021/08/20 04:50:10;;;;;;;9.27;5.82;;;;;;;14.25;80.13;93256.72;5113908;28;20130;-78
2021/08/20 04:52:39;;;;;;;10.63;6.70;;;;;;;14.34;79.90;93246.78;5113525;28;20130;-78
2021/08/20 04:55:06;;;;;;;11.48;6.07;;;;;;;14.47;79.94;93260.44;5113194;28;20048;-79
2021/08/20 04:57:33;;;;;;;11.65;6.07;;;;;;;14.50;80.37;93247.06;5113453;28;20544;-79
2021/08/20 05:00:00;;;;;;;15.82;6.05;;;;;;;14.75;79.28;93262.25;5113551;28;20078;-77
2021/08/20 05:02:28;;;;;;;19.92;6.07;;;;;;;14.89;78.90;93264.50;5113709;28;20048;-78
2021/08/20 05:04:55;;;;;;;12.65;6.13;;;;;;;14.75;78.67;93223.44;5113523;28;20047;-77
2021/08/20 05:07:22;;;;;;;13.65;6.20;;;;;;;15.13;78.18;93257.38;5113209;28;20055;-78
2021/08/20 05:09:51;;;;;;;13.07;5.78;;;;;;;15.15;77.75;93245.00;5113466;28;20052;-79
2021/08/20 05:12:17;;;;;;;14.07;5.65;;;;;;;15.33;75.71;93243.94;5113008;28;20043;-79
2021/08/20 05:14:44;;;;;;;9.90;5.75;;;;;;;15.48;75.45;93252.94;5113160;28;20048;-78
2021/08/20 05:17:11;;;;;;;13.80;5.90;;;;;;;15.40;74.80;93222.28;5113253;28;20051;-78
2021/08/20 05:19:38;;;;;;;12.40;6.00;;;;;;;15.70;75.57;93255.53;5113157;28;20074;-78
2021/08/20 05:22:05;;;;;;;12.30;5.82;;;;;;;15.74;74.35;93250.69;5112845;28;20048;-79
2021/08/20 05:24:32;;;;;;;19.10;5.35;;;;;;;15.76;75.03;93246.84;5113215;28;20048;-78
2021/08/20 05:27:00;;;;;;;18.88;6.20;;;;;;;15.85;74.96;93257.56;5112605;27;20044;-78
2021/08/20 05:29:27;;;;;;;14.40;6.25;;;;;;;15.89;73.91;93245.66;5112747;28;20614;-78
2021/08/20 05:31:53;;;;;;;15.48;6.47;;;;;;;16.05;73.10;93261.41;5109028;28;20050;-78
2021/08/20 05:34:21;;;;;;;19.33;6.72;;;;;;;16.09;73.11;93259.91;5110659;28;20043;-77
2021/08/20 05:36:48;;;;;;;13.25;5.97;;;;;;;16.19;72.75;93253.28;5112616;28;20079;-77
2021/08/20 05:39:15;;;;;;;10.98;5.28;;;;;;;16.24;72.05;93259.28;5113029;28;20060;-78
2021/08/20 05:41:42;;;;;;;16.08;7.18;;;;;;;16.34;71.53;93260.44;5113079;28;20054;-79
2021/08/20 05:44:10;;;;;;;23.23;6.13;;;;;;;16.43;71.42;93261.53;5112841;28;20044;-78
2021/08/20 05:46:37;;;;;;;10.52;5.85;;;;;;;16.58;70.57;93263.53;5112470;28;20050;-78
2021/08/20 05:49:06;;;;;;;11.88;5.82;;;;;;;16.73;70.18;93267.25;5112593;28;20055;-78
2021/08/20 05:51:33;;;;;;;13.43;6.68;;;;;;;16.76;69.48;93240.84;5112398;28;20044;-78
2021/08/20 05:54:00;;;;;;;15.75;7.72;;;;;;;17.00;68.75;93264.66;5112383;28;20112;-77
2021/08/20 05:56:27;;;;;;;17.35;8.23;;;;;;;17.18;67.14;93273.88;5111419;28;20047;-77
2021/08/20 05:58:53;;;;;;;36.40;15.93;;;;;;;17.19;66.33;93264.28;5112545;28;20047;-78
2021/08/20 06:01:22;;;;;;;27.95;11.50;;;;;;;17.47;65.86;93264.97;5112396;28;20389;-78
2021/08/20 06:03:48;;;;;;;41.63;15.25;;;;;;;17.67;65.71;93259.09;5112469;28;20054;-78
2021/08/20 06:06:16;;;;;;;41.15;19.27;;;;;;;17.90;64.39;93265.72;5112404;28;20124;-79
2021/08/20 06:08:43;;;;;;;38.13;16.90;;;;;;;18.13;62.69;93252.56;5111973;28;20484;-78
2021/08/20 06:11:10;;;;;;;38.25;17.95;;;;;;;18.27;63.18;93250.25;5112289;28;20067;-78
2021/08/20 06:13:37;;;;;;;39.63;18.40;;;;;;;18.59;62.05;93244.06;5112098;28;20055;-78
2021/08/20 06:16:04;;;;;;;35.55;16.88;;;;;;;18.65;60.17;93260.47;5112126;28;20117;-78
2021/08/20 06:18:32;;;;;;;32.63;17.48;;;;;;;18.79;59.55;93250.34;5112048;28;20070;-78
2021/08/20 06:20:59;;;;;;;37.95;16.27;;;;;;;19.16;58.77;93245.94;5111630;28;20046;-79
2021/08/20 06:23:26;;;;;;;31.35;15.23;;;;;;;19.44;57.69;93225.56;5111829;28;20495;-79
2021/08/20 06:25:53;;;;;;;28.73;13.20;;;;;;;19.65;54.13;93246.34;5111985;28;20040;-79
2021/08/20 06:28:20;;;;;;;22.48;11.98;;;;;;;19.55;55.16;93257.59;5111648;28;20147;-79
2021/08/20 06:30:47;;;;;;;29.23;13.85;;;;;;;19.45;55.12;93240.16;5112069;28;20062;-78
2021/08/20 06:33:15;;;;;;;22.67;11.38;;;;;;;19.90;54.29;93254.09;5111564;28;20048;-79
2021/08/20 06:35:43;;;;;;;22.05;11.60;;;;;;;20.15;54.04;93234.19;5111450;28;20048;-79
2021/08/20 06:38:10;;;;;;;21.38;11.93;;;;;;;20.69;51.94;93260.47;5111576;28;20055;-79
2021/08/20 06:40:37;;;;;;;23.80;11.00;;;;;;;20.89;48.91;93260.66;5102992;28;20047;-79
2021/08/20 06:43:04;;;;;;;26.83;11.43;;;;;;;20.64;50.33;93254.53;5101087;28;20416;-79
2021/08/20 06:45:31;;;;;;;22.77;11.38;;;;;;;20.63;49.50;93245.91;5100973;28;20047;-79
2021/08/20 06:47:58;;;;;;;15.38;8.00;;;;;;;20.51;48.56;93254.06;5099559;28;20076;-79
2021/08/20 06:50:25;;;;;;;16.90;7.40;;;;;;;20.89;49.41;93243.16;5100920;28;20039;-79
2021/08/20 06:52:53;;;;;;;10.77;5.82;;;;;;;21.09;46.54;93246.63;5101123;28;20048;-79
2021/08/20 06:55:21;;;;;;;11.10;4.88;;;;;;;21.59;46.46;93256.09;5099255;28;20420;-79
2021/08/20 06:57:47;;;;;;;12.18;5.25;;;;;;;21.87;47.06;93246.69;5100606;28;20067;-79
2021/08/20 07:00:15;;;;;;;17.65;7.82;;;;;;;21.79;46.37;93254.38;5101715;28;20123;-80
2021/08/20 07:02:43;;;;;;;17.60;7.00;;;;;;;22.01;46.43;93249.41;5108595;28;20528;-79
2021/08/20 07:05:12;;;;;;;11.27;5.88;;;;;;;21.85;46.34;93248.03;5108954;28;20054;-79
2021/08/20 07:07:39;;;;;;;16.60;6.75;;;;;;;21.62;45.83;93250.34;5109761;28;20096;-79
2021/08/20 07:10:09;;;;;;;18.35;7.55;;;;;;;22.02;45.56;93247.56;5110952;28;20094;-79
2021/08/20 07:12:37;;;;;;;15.90;6.30;;;;;;;21.99;45.50;93248.88;5110661;28;20090;-79
2021/08/20 07:15:05;;;;;;;9.80;5.28;;;;;;;21.87;46.61;93248.50;5091180;28;20109;-79
2021/08/20 07:17:31;;;;;;;14.73;5.57;;;;;;;21.86;46.99;93252.94;5090344;28;20062;-80
2021/08/20 07:19:59;;;;;;;16.30;5.10;;;;;;;21.76;46.88;93245.25;5090185;28;20056;-80
2021/08/20 07:22:26;;;;;;;13.60;5.65;;;;;;;21.98;46.92;93254.41;5101621;28;20047;-79
2021/08/20 07:24:53;;;;;;;9.88;5.13;;;;;;;22.25;46.78;93232.09;5110831;28;20063;-79
2021/08/20 07:27:21;;;;;;;12.63;5.05;;;;;;;22.90;46.47;93242.97;5110717;28;20059;-79
2021/08/20 07:29:49;;;;;;;7.38;4.63;;;;;;;23.29;45.20;93248.91;5110792;28;20047;-80
2021/08/20 07:32:16;;;;;;;8.43;4.65;;;;;;;23.14;45.57;93208.78;5105490;28;20364;-81
2021/08/20 07:34:43;;;;;;;8.77;5.05;;;;;;;23.87;43.88;93249.47;5108658;28;20142;-81
2021/08/20 07:37:10;;;;;;;9.93;4.90;;;;;;;24.08;43.96;93246.47;5110407;28;20047;-81
2021/08/20 07:39:37;;;;;;;11.55;4.97;;;;;;;23.66;42.48;93201.88;5110192;28;20043;-81
2021/08/20 07:42:05;;;;;;;10.93;4.60;;;;;;;24.18;43.49;93221.84;5110506;28;20051;-81
2021/08/20 07:44:34;;;;;;;13.65;4.75;;;;;;;24.76;42.17;93245.81;5110197;28;20051;-81
2021/08/20 07:47:01;;;;;;;11.00;5.40;;;;;;;23.68;44.31;93231.19;5110037;28;20048;-82
2021/08/20 07:49:29;;;;;;;12.25;5.57;;;;;;;23.94;43.78;93239.38;5110359;28;20044;-82
2021/08/20 07:51:57;;;;;;;15.60;5.95;;;;;;;23.87;43.32;93233.72;5109916;28;20524;-84
2021/08/20 07:54:24;;;;;;;15.30;5.55;;;;;;;24.37;42.24;93213.84;5110206;28;20461;-83
2021/08/20 07:56:51;;;;;;;12.45;6.35;;;;;;;23.67;43.53;93193.72;5109868;28;20050;-83
2021/08/20 07:59:18;;;;;;;11.30;5.88;;;;;;;23.20;45.00;93249.56;5109752;28;20059;-82
2021/08/20 08:01:46;;;;;;;10.05;5.82;;;;;;;22.83;46.21;93246.75;5109823;28;20048;-82
2021/08/20 08:04:13;;;;;;;15.85;6.05;;;;;;;23.62;45.61;93220.03;5110205;28;20047;-82
2021/08/20 08:06:40;;;;;;;13.43;5.90;;;;;;;24.00;44.08;93232.16;5109554;28;20048;-83
2021/08/20 08:09:07;;;;;;;10.52;5.95;;;;;;;23.61;44.46;93248.09;5110142;28;20047;-83
2021/08/20 08:11:34;;;;;;;13.63;5.35;;;;;;;23.29;45.20;93243.66;5109920;28;20043;-82
2021/08/20 08:14:04;;;;;;;9.18;5.28;;;;;;;23.66;45.07;93244.63;5109642;28;20055;-82
2021/08/20 08:16:31;;;;;;;10.43;5.82;;;;;;;24.28;45.49;93240.00;5109714;28;20051;-82
2021/08/20 08:19:00;;;;;;;10.77;5.30;;;;;;;24.78;44.18;93228.69;5109293;28;20054;-82
2021/08/20 08:21:26;;;;;;;11.68;5.80;;;;;;;25.43;43.89;93246.09;5109493;28;20055;-82
2021/08/20 08:23:53;;;;;;;11.95;5.68;;;;;;;25.58;42.89;93226.53;5110441;28;20051;-83
2021/08/20 08:26:20;;;;;;;11.95;5.97;;;;;;;26.19;41.07;93246.97;5110277;28;20043;-82
2021/08/20 08:28:47;;;;;;;11.93;5.97;;;;;;;26.30;41.38;93230.91;5109875;28;20047;-82
2021/08/20 08:31:14;;;;;;;12.05;6.55;;;;;;;26.30;41.65;93215.91;5109539;28;20058;-84
2021/08/20 08:33:40;;;;;;;11.32;6.30;;;;;;;26.57;41.14;93227.22;5109522;28;20060;-86
2021/08/20 08:36:10;;;;;;;12.20;7.00;;;;;;;26.64;39.79;93216.19;5109192;28;20052;-85
2021/08/20 08:38:37;;;;;;;12.93;6.50;;;;;;;26.76;39.94;93228.75;5109522;28;20052;-85
2021/08/20 08:41:33;;;;;;;11.32;6.57;;;;;;;26.46;41.13;93237.28;5109188;28;20095;-84
2021/08/20 08:44:00;;;;;;;9.70;6.30;;;;;;;26.46;41.56;93228.59;5109583;28;20384;-86
2021/08/20 08:46:27;;;;;;;10.35;6.35;;;;;;;25.52;41.82;93193.53;5109462;28;20419;-85
2021/08/20 08:48:54;;;;;;;12.02;6.40;;;;;;;25.66;43.47;93215.28;5109543;28;20048;-85
2021/08/20 08:51:23;;;;;;;15.05;7.05;;;;;;;26.27;42.51;93204.13;5109743;28;20514;-83
2021/08/20 08:53:50;;;;;;;16.40;6.30;;;;;;;26.96;41.75;93222.09;5111193;28;20043;-83
2021/08/20 08:56:20;;;;;;;13.07;6.60;;;;;;;27.02;40.48;93197.09;5118149;28;20077;-84
2021/08/20 08:58:47;;;;;;;14.38;6.07;;;;;;;27.64;39.60;93210.13;5109865;28;20044;-83
2021/08/20 09:01:27;;;;;;;11.50;6.20;;;;;;;27.89;39.32;93183.91;5109982;28;20052;-84
2021/08/20 09:04:08;;;;;;;11.70;6.57;;;;;;;28.36;38.07;93212.06;5109561;28;20051;-83
2021/08/20 09:06:41;;;;;;;17.05;6.95;;;;;;;28.68;37.77;93219.56;5109426;28;20048;-81
2021/08/20 09:09:09;;;;;;;11.70;6.78;;;;;;;28.96;37.28;93224.34;5109292;28;20048;-82
2021/08/20 09:11:36;;;;;;;12.27;6.95;;;;;;;29.15;37.54;93215.16;5109218;28;20085;-82
2021/08/20 09:14:03;;;;;;;11.25;6.68;;;;;;;29.08;36.50;93216.44;5109499;28;20059;-82
2021/08/20 09:16:38;;;;;;;14.95;6.45;;;;;;;28.96;37.62;93157.47;5109047;28;20063;-83
2021/08/20 09:19:15;;;;;;;10.05;6.38;;;;;;;29.70;36.55;93215.78;5109122;28;20059;-82
2021/08/20 09:21:53;;;;;;;10.00;6.60;;;;;;;29.45;36.25;93165.47;5108819;28;20043;-83
2021/08/20 09:24:31;;;;;;;12.70;6.65;;;;;;;29.92;36.53;93205.06;5109474;28;20446;-83
2021/08/20 09:27:21;;;;;;;20.25;7.47;;;;;;;30.02;35.41;93196.69;5109679;28;20048;-84
2021/08/20 09:30:01;;;;;;;8.90;6.03;;;;;;;29.99;34.85;93187.53;5109779;28;20051;-83
2021/08/20 09:32:28;;;;;;;9.88;6.38;;;;;;;30.31;35.84;93196.78;5112502;28;20067;-83
2021/08/20 09:34:57;;;;;;;7.88;6.28;;;;;;;30.48;35.46;93185.13;5113557;28;20052;-84
2021/08/20 09:37:26;;;;;;;11.35;6.95;;;;;;;30.76;34.97;93200.28;5113035;28;20480;-84
2021/08/20 09:39:58;;;;;;;11.38;6.75;;;;;;;30.58;34.62;93189.94;5113235;28;20416;-84
2021/08/20 09:42:25;;;;;;;12.35;6.65;;;;;;;30.61;34.74;93183.97;5113411;28;20054;-86
2021/08/20 09:45:20;;;;;;;12.25;6.40;;;;;;;30.89;34.66;93196.47;5113411;27;20052;-84
2021/08/20 09:47:49;;;;;;;16.52;6.90;;;;;;;31.05;34.25;93187.78;5113225;28;20568;-86
2021/08/20 09:50:17;;;;;;;13.85;6.63;;;;;;;31.00;33.00;93193.34;5113243;28;20518;-86
2021/08/20 09:52:45;;;;;;;14.05;6.82;;;;;;;29.49;35.12;93168.25;5113127;28;20051;-86
2021/08/20 09:55:13;;;;;;;11.50;6.55;;;;;;;29.98;35.68;93169.31;5113126;28;20051;-85
2021/08/20 09:57:40;;;;;;;10.63;7.43;;;;;;;30.49;35.33;93178.69;5112980;28;20054;-86
2021/08/20 10:00:10;;;;;;;11.98;7.18;;;;;;;30.64;34.49;93183.28;5113067;27;20572;-85
2021/08/20 10:02:41;;;;;;;9.65;6.75;;;;;;;31.01;33.95;93185.00;5112961;28;20047;-85
2021/08/20 10:05:09;;;;;;;11.98;7.30;;;;;;;31.33;33.46;93186.97;5112761;28;20048;-85
2021/08/20 10:07:40;;;;;;;11.02;7.22;;;;;;;31.42;33.13;93176.94;5107515;28;20058;-85
2021/08/20 10:10:10;;;;;;;12.02;6.90;;;;;;;31.18;33.03;93154.75;5111059;28;20044;-86
2021/08/20 10:12:40;;;;;;;10.82;6.50;;;;;;;31.25;32.49;93186.00;5112840;28;20047;-87
2021/08/20 10:15:08;;;;;;;12.15;7.10;;;;;;;29.49;34.98;93183.34;5112753;28;20504;-85
2021/08/20 10:17:37;;;;;;;9.27;6.90;;;;;;;28.47;37.27;93179.97;5112540;28;20083;-85
2021/08/20 10:20:05;;;;;;;10.48;7.22;;;;;;;28.38;37.53;93186.09;5112387;28;20058;-86
2021/08/20 10:22:32;;;;;;;12.10;6.97;;;;;;;28.56;37.35;93179.91;5112431;28;20058;-86
2021/08/20 10:25:02;;;;;;;11.55;7.70;;;;;;;28.57;38.05;93158.44;5112428;28;20048;-84
2021/08/20 10:27:33;;;;;;;9.82;6.82;;;;;;;29.20;36.80;93152.22;5112616;28;20064;-84
2021/08/20 10:30:01;;;;;;;10.60;6.95;;;;;;;29.68;35.18;93169.56;5112588;28;20818;-85
2021/08/20 10:32:28;;;;;;;11.40;7.10;;;;;;;30.07;34.99;93164.66;5112422;28;20075;-84
2021/08/20 10:34:55;;;;;;;12.40;7.10;;;;;;;30.35;34.74;93150.72;5112472;28;20051;-84
2021/08/20 10:37:30;;;;;;;9.80;6.63;;;;;;;29.16;34.78;93171.72;5111906;28;20082;-85
2021/08/20 10:40:01;;;;;;;11.43;6.82;;;;;;;29.60;35.20;93164.06;5112122;28;20162;-84
2021/08/20 10:42:39;;;;;;;9.07;6.57;;;;;;;29.39;34.90;93152.78;5111998;28;20055;-84
2021/08/20 10:45:09;;;;;;;12.35;6.47;;;;;;;28.89;36.64;93139.50;5112322;28;20104;-85
2021/08/20 10:47:37;;;;;;;35.28;7.45;;;;;;;30.04;35.33;93146.81;5112503;28;20051;-85
2021/08/20 10:50:09;;;;;;;11.23;6.72;;;;;;;29.98;34.57;93125.06;5112138;28;20062;-85
2021/08/20 10:52:40;;;;;;;13.50;6.53;;;;;;;30.86;34.28;93152.06;5111973;28;20052;-86
2021/08/20 10:55:32;;;;;;;13.05;6.80;;;;;;;30.20;32.39;93128.34;5112489;28;20059;-86
2021/08/20 10:58:11;;;;;;;10.32;6.60;;;;;;;31.32;32.05;93142.97;5106539;28;20052;-85
2021/08/20 11:00:56;;;;;;;9.82;5.63;;;;;;;31.45;30.50;93144.41;5111817;28;20507;-86
2021/08/20 11:03:46;;;;;;;;;;;;;;;31.94;31.55;93150.41;5112333;28;20047;-84
2021/08/20 11:06:45;;;;;;;8.98;6.10;;;;;;;32.28;30.25;93149.19;5111918;28;20295;-84
2021/08/20 11:09:33;;;;;;;9.60;5.53;;;;;;;31.91;30.10;93119.25;5097998;28;20047;-85
2021/08/20 11:12:00;;;;;;;9.63;5.85;;;;;;;30.37;31.56;93145.09;5106608;28;20048;-83
2021/08/20 11:14:38;;;;;;;9.10;6.22;;;;;;;30.20;32.72;93111.69;5097610;28;20119;-84
2021/08/20 11:17:11;;;;;;;10.30;5.72;;;;;;;30.79;31.84;93128.78;5100756;28;20048;-85
2021/08/20 11:19:55;;;;;;;10.93;6.72;;;;;;;30.86;32.25;93114.94;5102363;28;20100;-84
2021/08/20 11:22:27;;;;;;;27.50;21.00;;;;;;;31.11;32.26;93141.31;5099927;28;20138;-83
2021/08/20 11:25:09;;;;;;;16.60;6.45;;;;;;;31.39;31.92;93132.53;5106149;28;20047;-83
2021/08/20 11:27:36;;;;;;;11.13;6.63;;;;;;;31.41;31.68;93102.97;5111278;28;20534;-84
2021/08/20 11:30:06;;;;;;;8.38;6.25;;;;;;;31.49;31.27;93131.22;5111359;28;20056;-84
2021/08/20 11:32:33;;;;;;;9.70;5.97;;;;;;;31.53;31.43;93118.81;5111542;28;20051;-83